sensor_id;sensor_type;location;lat;lon;timestamp;P1;durP1;ratioP1;P2;durP2;ratioP2
483;SDS011;228;48.922;12.198;2023-02-01T00:00:45;5.90;;;3.63;;
483;SDS011;228;48.922;12.198;2023-02-01T00:03:11;3.80;;;3.40;;
483;SDS011;228;48.922;12.198;2023-02-01T00:05:39;10.97;;;3.77;;
483;SDS011;228;48.922;12.198;2023-02-01T00:08:05;5.80;;;3.73;;
483;SDS011;228;48.922;12.198;2023-02-01T00:10:31;5.00;;;3.03;;
483;SDS011;228;48.922;12.198;2023-02-01T00:12:57;7.57;;;3.07;;
483;SDS011;228;48.922;12.198;2023-02-01T00:15:23;4.57;;;3.27;;
483;SDS011;228;48.922;12.198;2023-02-01T00:17:53;3.93;;;3.30;;
483;SDS011;228;48.922;12.198;2023-02-01T00:20:21;5.27;;;3.30;;
483;SDS011;228;48.922;12.198;2023-02-01T00:22:47;6.90;;;3.50;;
483;SDS011;228;48.922;12.198;2023-02-01T00:25:13;4.33;;;3.30;;
483;SDS011;228;48.922;12.198;2023-02-01T00:27:39;6.27;;;3.57;;
483;SDS011;228;48.922;12.198;2023-02-01T00:30:05;4.73;;;3.47;;
483;SDS011;228;48.922;12.198;2023-02-01T00:32:32;5.27;;;3.30;;
483;SDS011;228;48.922;12.198;2023-02-01T00:34:58;5.43;;;3.17;;
483;SDS011;228;48.922;12.198;2023-02-01T00:37:24;6.50;;;3.80;;
483;SDS011;228;48.922;12.198;2023-02-01T00:39:50;7.40;;;3.43;;
483;SDS011;228;48.922;12.198;2023-02-01T00:42:16;5.60;;;3.27;;
483;SDS011;228;48.922;12.198;2023-02-01T00:44:42;5.43;;;3.37;;
483;SDS011;228;48.922;12.198;2023-02-01T00:47:08;4.87;;;3.30;;
483;SDS011;228;48.922;12.198;2023-02-01T00:49:34;5.97;;;3.80;;
483;SDS011;228;48.922;12.198;2023-02-01T00:52:00;5.30;;;3.40;;
483;SDS011;228;48.922;12.198;2023-02-01T00:54:26;6.63;;;3.60;;
483;SDS011;228;48.922;12.198;2023-02-01T00:56:52;4.53;;;3.23;;
483;SDS011;228;48.922;12.198;2023-02-01T00:59:18;4.27;;;3.40;;
483;SDS011;228;48.922;12.198;2023-02-01T01:01:44;4.70;;;3.67;;
483;SDS011;228;48.922;12.198;2023-02-01T01:04:10;5.43;;;3.07;;
483;SDS011;228;48.922;12.198;2023-02-01T01:06:36;8.43;;;3.47;;
483;SDS011;228;48.922;12.198;2023-02-01T01:09:03;5.57;;;3.60;;
483;SDS011;228;48.922;12.198;2023-02-01T01:11:33;4.60;;;2.97;;
483;SDS011;228;48.922;12.198;2023-02-01T01:14:04;6.07;;;3.60;;
483;SDS011;228;48.922;12.198;2023-02-01T01:16:32;5.77;;;3.60;;
483;SDS011;228;48.922;12.198;2023-02-01T01:18:58;5.27;;;3.57;;
483;SDS011;228;48.922;12.198;2023-02-01T01:21:25;6.50;;;4.13;;
483;SDS011;228;48.922;12.198;2023-02-01T01:23:52;6.30;;;3.33;;
483;SDS011;228;48.922;12.198;2023-02-01T01:26:20;5.30;;;3.80;;
483;SDS011;228;48.922;12.198;2023-02-01T01:28:48;4.10;;;3.07;;
483;SDS011;228;48.922;12.198;2023-02-01T01:31:16;4.90;;;3.10;;
483;SDS011;228;48.922;12.198;2023-02-01T01:33:43;4.43;;;2.93;;
483;SDS011;228;48.922;12.198;2023-02-01T01:36:10;5.27;;;3.33;;
483;SDS011;228;48.922;12.198;2023-02-01T01:38:38;5.80;;;3.53;;
483;SDS011;228;48.922;12.198;2023-02-01T01:41:07;5.63;;;3.60;;
483;SDS011;228;48.922;12.198;2023-02-01T01:46:22;3.87;;;3.17;;
483;SDS011;228;48.922;12.198;2023-02-01T01:48:52;6.40;;;3.57;;
483;SDS011;228;48.922;12.198;2023-02-01T01:51:47;5.50;;;3.67;;
483;SDS011;228;48.922;12.198;2023-02-01T01:54:20;4.40;;;3.07;;
483;SDS011;228;48.922;12.198;2023-02-01T01:56:53;5.77;;;3.40;;
483;SDS011;228;48.922;12.198;2023-02-01T01:59:25;4.87;;;3.00;;
483;SDS011;228;48.922;12.198;2023-02-01T02:01:52;7.37;;;3.70;;
483;SDS011;228;48.922;12.198;2023-02-01T02:04:18;7.50;;;3.67;;
483;SDS011;228;48.922;12.198;2023-02-01T02:06:55;6.00;;;3.27;;
483;SDS011;228;48.922;12.198;2023-02-01T02:09:39;4.97;;;3.50;;
483;SDS011;228;48.922;12.198;2023-02-01T02:12:08;6.63;;;3.87;;
483;SDS011;228;48.922;12.198;2023-02-01T02:14:34;6.73;;;3.37;;
483;SDS011;228;48.922;12.198;2023-02-01T02:23:59;4.27;;;3.13;;
483;SDS011;228;48.922;12.198;2023-02-01T02:27:02;4.83;;;3.10;;
483;SDS011;228;48.922;12.198;2023-02-01T02:29:54;5.07;;;3.30;;
483;SDS011;228;48.922;12.198;2023-02-01T02:34:05;5.27;;;3.03;;
483;SDS011;228;48.922;12.198;2023-02-01T02:39:03;5.33;;;3.00;;
483;SDS011;228;48.922;12.198;2023-02-01T02:44:50;4.03;;;3.40;;
483;SDS011;228;48.922;12.198;2023-02-01T02:47:56;6.27;;;2.97;;
483;SDS011;228;48.922;12.198;2023-02-01T02:51:05;4.50;;;3.00;;
483;SDS011;228;48.922;12.198;2023-02-01T02:56:53;6.63;;;3.17;;
483;SDS011;228;48.922;12.198;2023-02-01T02:59:40;6.37;;;3.70;;
483;SDS011;228;48.922;12.198;2023-02-01T03:02:30;6.50;;;3.93;;
483;SDS011;228;48.922;12.198;2023-02-01T03:05:16;6.03;;;4.03;;
483;SDS011;228;48.922;12.198;2023-02-01T03:12:53;5.37;;;3.03;;
483;SDS011;228;48.922;12.198;2023-02-01T03:15:20;4.27;;;3.30;;
483;SDS011;228;48.922;12.198;2023-02-01T03:18:20;4.23;;;3.50;;
483;SDS011;228;48.922;12.198;2023-02-01T03:21:16;5.53;;;3.30;;
483;SDS011;228;48.922;12.198;2023-02-01T03:24:05;5.57;;;3.30;;
483;SDS011;228;48.922;12.198;2023-02-01T03:26:42;5.43;;;3.40;;
483;SDS011;228;48.922;12.198;2023-02-01T03:29:18;4.30;;;2.90;;
483;SDS011;228;48.922;12.198;2023-02-01T03:31:51;5.77;;;3.77;;
483;SDS011;228;48.922;12.198;2023-02-01T03:34:18;4.87;;;2.90;;
483;SDS011;228;48.922;12.198;2023-02-01T03:41:50;4.10;;;3.10;;
483;SDS011;228;48.922;12.198;2023-02-01T03:44:28;5.23;;;2.93;;
483;SDS011;228;48.922;12.198;2023-02-01T03:49:36;3.73;;;3.20;;
483;SDS011;228;48.922;12.198;2023-02-01T03:52:11;3.93;;;3.00;;
483;SDS011;228;48.922;12.198;2023-02-01T03:54:43;3.23;;;2.60;;
483;SDS011;228;48.922;12.198;2023-02-01T03:57:12;5.70;;;2.60;;
483;SDS011;228;48.922;12.198;2023-02-01T03:59:42;3.13;;;2.57;;
483;SDS011;228;48.922;12.198;2023-02-01T04:02:10;3.87;;;2.70;;
483;SDS011;228;48.922;12.198;2023-02-01T04:04:37;6.07;;;2.80;;
483;SDS011;228;48.922;12.198;2023-02-01T04:07:03;4.60;;;2.60;;
483;SDS011;228;48.922;12.198;2023-02-01T04:09:29;5.97;;;3.07;;
483;SDS011;228;48.922;12.198;2023-02-01T04:11:55;4.70;;;2.70;;
483;SDS011;228;48.922;12.198;2023-02-01T04:14:22;3.67;;;2.60;;
483;SDS011;228;48.922;12.198;2023-02-01T04:16:48;4.03;;;2.70;;
483;SDS011;228;48.922;12.198;2023-02-01T04:19:14;2.83;;;2.33;;
483;SDS011;228;48.922;12.198;2023-02-01T04:21:40;7.47;;;2.70;;
483;SDS011;228;48.922;12.198;2023-02-01T04:24:06;3.90;;;3.00;;
483;SDS011;228;48.922;12.198;2023-02-01T04:26:33;2.53;;;2.33;;
483;SDS011;228;48.922;12.198;2023-02-01T04:28:59;4.90;;;2.60;;
483;SDS011;228;48.922;12.198;2023-02-01T04:31:25;3.43;;;2.47;;
483;SDS011;228;48.922;12.198;2023-02-01T04:33:53;4.20;;;2.70;;
483;SDS011;228;48.922;12.198;2023-02-01T04:36:22;3.60;;;2.43;;
483;SDS011;228;48.922;12.198;2023-02-01T04:38:49;4.83;;;2.23;;
483;SDS011;228;48.922;12.198;2023-02-01T04:41:16;3.30;;;2.60;;
483;SDS011;228;48.922;12.198;2023-02-01T04:43:45;3.83;;;2.80;;
483;SDS011;228;48.922;12.198;2023-02-01T04:46:15;3.47;;;3.07;;
483;SDS011;228;48.922;12.198;2023-02-01T04:48:41;3.27;;;2.43;;
483;SDS011;228;48.922;12.198;2023-02-01T04:51:08;3.23;;;2.47;;
483;SDS011;228;48.922;12.198;2023-02-01T04:53:35;2.57;;;2.00;;
483;SDS011;228;48.922;12.198;2023-02-01T04:56:02;4.57;;;2.57;;
483;SDS011;228;48.922;12.198;2023-02-01T04:58:28;3.20;;;2.33;;
483;SDS011;228;48.922;12.198;2023-02-01T05:00:54;3.37;;;2.20;;
483;SDS011;228;48.922;12.198;2023-02-01T05:03:20;2.60;;;2.30;;
483;SDS011;228;48.922;12.198;2023-02-01T05:05:47;3.07;;;1.80;;
483;SDS011;228;48.922;12.198;2023-02-01T05:08:14;3.37;;;2.50;;
483;SDS011;228;48.922;12.198;2023-02-01T05:10:40;3.67;;;2.40;;
483;SDS011;228;48.922;12.198;2023-02-01T05:13:07;3.57;;;2.60;;
483;SDS011;228;48.922;12.198;2023-02-01T05:15:53;2.53;;;2.30;;
483;SDS011;228;48.922;12.198;2023-02-01T05:18:19;3.10;;;2.33;;
483;SDS011;228;48.922;12.198;2023-02-01T05:20:45;4.83;;;2.77;;
483;SDS011;228;48.922;12.198;2023-02-01T05:23:11;5.57;;;3.53;;
483;SDS011;228;48.922;12.198;2023-02-01T05:25:37;4.47;;;2.70;;
483;SDS011;228;48.922;12.198;2023-02-01T05:28:03;4.13;;;2.67;;
483;SDS011;228;48.922;12.198;2023-02-01T05:30:29;5.53;;;2.70;;
483;SDS011;228;48.922;12.198;2023-02-01T05:32:55;3.60;;;2.57;;
483;SDS011;228;48.922;12.198;2023-02-01T05:35:21;3.73;;;2.43;;
483;SDS011;228;48.922;12.198;2023-02-01T05:37:48;3.60;;;2.73;;
483;SDS011;228;48.922;12.198;2023-02-01T05:40:14;3.30;;;2.40;;
483;SDS011;228;48.922;12.198;2023-02-01T05:42:40;4.33;;;2.80;;
483;SDS011;228;48.922;12.198;2023-02-01T05:45:06;3.10;;;2.13;;
483;SDS011;228;48.922;12.198;2023-02-01T05:47:33;3.67;;;2.70;;
483;SDS011;228;48.922;12.198;2023-02-01T05:49:59;3.50;;;2.60;;
483;SDS011;228;48.922;12.198;2023-02-01T05:52:25;2.70;;;2.20;;
483;SDS011;228;48.922;12.198;2023-02-01T05:54:51;3.10;;;2.60;;
483;SDS011;228;48.922;12.198;2023-02-01T05:57:18;3.50;;;2.43;;
483;SDS011;228;48.922;12.198;2023-02-01T05:59:44;3.73;;;2.33;;
483;SDS011;228;48.922;12.198;2023-02-01T06:02:14;6.30;;;2.97;;
483;SDS011;228;48.922;12.198;2023-02-01T06:04:41;2.77;;;2.40;;
483;SDS011;228;48.922;12.198;2023-02-01T06:07:08;3.20;;;2.47;;
483;SDS011;228;48.922;12.198;2023-02-01T06:09:35;3.10;;;2.50;;
483;SDS011;228;48.922;12.198;2023-02-01T06:12:02;4.80;;;2.50;;
483;SDS011;228;48.922;12.198;2023-02-01T06:14:29;3.47;;;2.43;;
483;SDS011;228;48.922;12.198;2023-02-01T06:16:55;3.57;;;2.83;;
483;SDS011;228;48.922;12.198;2023-02-01T06:19:22;3.80;;;2.80;;
483;SDS011;228;48.922;12.198;2023-02-01T06:21:49;4.97;;;2.17;;
483;SDS011;228;48.922;12.198;2023-02-01T06:24:15;3.23;;;2.63;;
483;SDS011;228;48.922;12.198;2023-02-01T06:26:41;3.87;;;2.40;;
483;SDS011;228;48.922;12.198;2023-02-01T06:29:09;5.90;;;3.03;;
483;SDS011;228;48.922;12.198;2023-02-01T06:31:35;4.57;;;1.90;;
483;SDS011;228;48.922;12.198;2023-02-01T06:34:01;2.43;;;2.20;;
483;SDS011;228;48.922;12.198;2023-02-01T06:36:28;2.97;;;2.53;;
483;SDS011;228;48.922;12.198;2023-02-01T06:38:57;4.23;;;2.60;;
483;SDS011;228;48.922;12.198;2023-02-01T06:41:25;6.20;;;2.73;;
483;SDS011;228;48.922;12.198;2023-02-01T06:43:51;4.47;;;2.60;;
483;SDS011;228;48.922;12.198;2023-02-01T06:46:18;2.83;;;2.57;;
483;SDS011;228;48.922;12.198;2023-02-01T06:48:44;3.20;;;2.70;;
483;SDS011;228;48.922;12.198;2023-02-01T06:51:32;3.53;;;2.40;;
483;SDS011;228;48.922;12.198;2023-02-01T06:53:57;2.37;;;1.90;;
483;SDS011;228;48.922;12.198;2023-02-01T06:56:23;3.33;;;2.07;;
483;SDS011;228;48.922;12.198;2023-02-01T06:58:51;5.43;;;3.33;;
483;SDS011;228;48.922;12.198;2023-02-01T07:01:17;3.43;;;2.27;;
483;SDS011;228;48.922;12.198;2023-02-01T07:03:46;3.67;;;2.57;;
483;SDS011;228;48.922;12.198;2023-02-01T07:06:16;3.17;;;2.10;;
483;SDS011;228;48.922;12.198;2023-02-01T07:08:43;3.30;;;2.37;;
483;SDS011;228;48.922;12.198;2023-02-01T07:11:10;2.53;;;2.10;;
483;SDS011;228;48.922;12.198;2023-02-01T07:13:38;4.57;;;2.20;;
483;SDS011;228;48.922;12.198;2023-02-01T07:16:05;3.80;;;2.00;;
483;SDS011;228;48.922;12.198;2023-02-01T07:18:36;3.37;;;2.17;;
483;SDS011;228;48.922;12.198;2023-02-01T07:21:02;2.93;;;2.03;;
483;SDS011;228;48.922;12.198;2023-02-01T07:23:29;5.00;;;2.57;;
483;SDS011;228;48.922;12.198;2023-02-01T07:25:59;7.70;;;2.90;;
483;SDS011;228;48.922;12.198;2023-02-01T07:28:29;2.90;;;2.40;;
483;SDS011;228;48.922;12.198;2023-02-01T07:31:08;3.20;;;2.20;;
483;SDS011;228;48.922;12.198;2023-02-01T07:33:40;4.03;;;3.00;;
483;SDS011;228;48.922;12.198;2023-02-01T07:36:07;2.60;;;2.13;;
483;SDS011;228;48.922;12.198;2023-02-01T07:38:39;4.20;;;3.20;;
483;SDS011;228;48.922;12.198;2023-02-01T07:41:05;4.27;;;2.97;;
483;SDS011;228;48.922;12.198;2023-02-01T07:43:31;3.97;;;2.80;;
483;SDS011;228;48.922;12.198;2023-02-01T07:45:58;2.70;;;2.17;;
483;SDS011;228;48.922;12.198;2023-02-01T07:48:25;2.87;;;2.57;;
483;SDS011;228;48.922;12.198;2023-02-01T07:53:30;3.40;;;2.40;;
483;SDS011;228;48.922;12.198;2023-02-01T07:55:58;2.70;;;2.27;;
483;SDS011;228;48.922;12.198;2023-02-01T07:58:25;3.20;;;2.40;;
483;SDS011;228;48.922;12.198;2023-02-01T08:00:52;2.70;;;2.40;;
483;SDS011;228;48.922;12.198;2023-02-01T08:03:37;3.20;;;2.20;;
483;SDS011;228;48.922;12.198;2023-02-01T08:06:04;3.90;;;3.00;;
483;SDS011;228;48.922;12.198;2023-02-01T08:08:30;2.50;;;2.20;;
483;SDS011;228;48.922;12.198;2023-02-01T08:10:57;3.43;;;2.60;;
483;SDS011;228;48.922;12.198;2023-02-01T08:13:24;2.50;;;2.00;;
483;SDS011;228;48.922;12.198;2023-02-01T08:15:50;2.77;;;2.47;;
483;SDS011;228;48.922;12.198;2023-02-01T08:18:16;5.50;;;2.90;;
483;SDS011;228;48.922;12.198;2023-02-01T08:20:43;5.77;;;2.90;;
483;SDS011;228;48.922;12.198;2023-02-01T08:23:11;6.40;;;3.10;;
483;SDS011;228;48.922;12.198;2023-02-01T08:25:37;3.93;;;2.73;;
483;SDS011;228;48.922;12.198;2023-02-01T08:28:05;4.30;;;3.23;;
483;SDS011;228;48.922;12.198;2023-02-01T08:30:32;4.30;;;2.80;;
483;SDS011;228;48.922;12.198;2023-02-01T08:32:58;5.00;;;3.60;;
483;SDS011;228;48.922;12.198;2023-02-01T08:35:24;3.63;;;2.83;;
483;SDS011;228;48.922;12.198;2023-02-01T08:37:50;6.43;;;3.60;;
483;SDS011;228;48.922;12.198;2023-02-01T08:40:16;5.33;;;3.23;;
483;SDS011;228;48.922;12.198;2023-02-01T08:42:42;5.10;;;2.97;;
483;SDS011;228;48.922;12.198;2023-02-01T08:45:23;4.87;;;2.90;;
483;SDS011;228;48.922;12.198;2023-02-01T08:47:53;3.87;;;3.10;;
483;SDS011;228;48.922;12.198;2023-02-01T08:50:20;3.83;;;2.77;;
483;SDS011;228;48.922;12.198;2023-02-01T08:52:47;3.30;;;2.03;;
483;SDS011;228;48.922;12.198;2023-02-01T08:55:17;3.97;;;2.60;;
483;SDS011;228;48.922;12.198;2023-02-01T08:57:44;3.80;;;2.77;;
483;SDS011;228;48.922;12.198;2023-02-01T09:00:12;4.73;;;3.27;;
483;SDS011;228;48.922;12.198;2023-02-01T09:02:41;3.30;;;2.73;;
483;SDS011;228;48.922;12.198;2023-02-01T09:05:08;7.40;;;3.17;;
483;SDS011;228;48.922;12.198;2023-02-01T09:07:36;3.57;;;2.23;;
483;SDS011;228;48.922;12.198;2023-02-01T09:10:04;4.33;;;2.80;;
483;SDS011;228;48.922;12.198;2023-02-01T09:12:31;2.97;;;2.50;;
483;SDS011;228;48.922;12.198;2023-02-01T09:14:58;4.57;;;2.50;;
483;SDS011;228;48.922;12.198;2023-02-01T09:17:28;2.50;;;2.30;;
483;SDS011;228;48.922;12.198;2023-02-01T09:19:54;5.00;;;2.03;;
483;SDS011;228;48.922;12.198;2023-02-01T09:22:20;3.17;;;2.67;;
483;SDS011;228;48.922;12.198;2023-02-01T09:24:47;3.50;;;2.40;;
483;SDS011;228;48.922;12.198;2023-02-01T09:27:15;2.90;;;2.20;;
483;SDS011;228;48.922;12.198;2023-02-01T09:29:41;3.87;;;2.20;;
483;SDS011;228;48.922;12.198;2023-02-01T09:32:07;2.47;;;1.70;;
483;SDS011;228;48.922;12.198;2023-02-01T09:34:33;2.17;;;1.97;;
483;SDS011;228;48.922;12.198;2023-02-01T09:37:01;1.90;;;1.70;;
483;SDS011;228;48.922;12.198;2023-02-01T09:39:27;2.53;;;2.13;;
483;SDS011;228;48.922;12.198;2023-02-01T09:42:15;3.47;;;1.93;;
483;SDS011;228;48.922;12.198;2023-02-01T09:48:08;2.30;;;1.80;;
483;SDS011;228;48.922;12.198;2023-02-01T09:51:19;2.93;;;2.47;;
483;SDS011;228;48.922;12.198;2023-02-01T09:53:44;3.53;;;2.63;;
483;SDS011;228;48.922;12.198;2023-02-01T09:56:21;3.10;;;2.57;;
483;SDS011;228;48.922;12.198;2023-02-01T09:59:04;4.93;;;2.77;;
483;SDS011;228;48.922;12.198;2023-02-01T10:01:49;5.37;;;3.00;;
483;SDS011;228;48.922;12.198;2023-02-01T10:04:15;3.43;;;2.97;;
483;SDS011;228;48.922;12.198;2023-02-01T10:09:25;4.27;;;2.97;;
483;SDS011;228;48.922;12.198;2023-02-01T10:26:54;4.53;;;3.27;;
483;SDS011;228;48.922;12.198;2023-02-01T10:29:41;3.80;;;3.10;;
483;SDS011;228;48.922;12.198;2023-02-01T10:32:21;4.93;;;3.40;;
483;SDS011;228;48.922;12.198;2023-02-01T10:34:59;7.70;;;3.77;;
483;SDS011;228;48.922;12.198;2023-02-01T10:37:34;6.70;;;3.33;;
483;SDS011;228;48.922;12.198;2023-02-01T10:40:19;4.40;;;3.17;;
483;SDS011;228;48.922;12.198;2023-02-01T10:42:50;3.50;;;2.83;;
483;SDS011;228;48.922;12.198;2023-02-01T10:45:21;4.20;;;2.53;;
483;SDS011;228;48.922;12.198;2023-02-01T10:47:52;3.67;;;2.70;;
483;SDS011;228;48.922;12.198;2023-02-01T10:50:37;3.77;;;2.87;;
483;SDS011;228;48.922;12.198;2023-02-01T10:53:34;3.33;;;2.43;;
483;SDS011;228;48.922;12.198;2023-02-01T10:56:13;6.70;;;2.97;;
483;SDS011;228;48.922;12.198;2023-02-01T10:58:46;5.80;;;3.00;;
483;SDS011;228;48.922;12.198;2023-02-01T11:01:33;4.20;;;3.00;;
483;SDS011;228;48.922;12.198;2023-02-01T11:04:04;5.10;;;2.83;;
483;SDS011;228;48.922;12.198;2023-02-01T11:06:35;4.17;;;2.60;;
483;SDS011;228;48.922;12.198;2023-02-01T11:14:17;4.00;;;2.47;;
483;SDS011;228;48.922;12.198;2023-02-01T11:16:59;2.73;;;2.03;;
483;SDS011;228;48.922;12.198;2023-02-01T11:19:37;4.70;;;2.20;;
483;SDS011;228;48.922;12.198;2023-02-01T11:22:03;4.60;;;2.10;;
483;SDS011;228;48.922;12.198;2023-02-01T11:24:35;4.40;;;2.17;;
483;SDS011;228;48.922;12.198;2023-02-01T11:27:04;4.13;;;2.33;;
483;SDS011;228;48.922;12.198;2023-02-01T11:29:40;3.30;;;2.27;;
483;SDS011;228;48.922;12.198;2023-02-01T11:32:11;3.20;;;1.87;;
483;SDS011;228;48.922;12.198;2023-02-01T11:37:19;2.80;;;2.07;;
483;SDS011;228;48.922;12.198;2023-02-01T11:39:54;3.80;;;2.20;;
483;SDS011;228;48.922;12.198;2023-02-01T11:42:26;3.20;;;2.03;;
483;SDS011;228;48.922;12.198;2023-02-01T11:45:17;5.43;;;2.10;;
483;SDS011;228;48.922;12.198;2023-02-01T11:47:46;5.07;;;2.10;;
483;SDS011;228;48.922;12.198;2023-02-01T11:50:39;4.17;;;1.80;;
483;SDS011;228;48.922;12.198;2023-02-01T11:53:19;6.33;;;2.13;;
483;SDS011;228;48.922;12.198;2023-02-01T11:56:08;7.70;;;2.00;;
483;SDS011;228;48.922;12.198;2023-02-01T12:05:00;5.17;;;2.10;;
483;SDS011;228;48.922;12.198;2023-02-01T12:15:49;4.23;;;2.37;;
483;SDS011;228;48.922;12.198;2023-02-01T12:26:47;2.80;;;2.07;;
483;SDS011;228;48.922;12.198;2023-02-01T12:37:32;4.37;;;2.00;;
483;SDS011;228;48.922;12.198;2023-02-01T12:46:15;6.27;;;2.40;;
483;SDS011;228;48.922;12.198;2023-02-01T12:48:57;5.57;;;2.10;;
483;SDS011;228;48.922;12.198;2023-02-01T12:51:44;4.77;;;1.93;;
483;SDS011;228;48.922;12.198;2023-02-01T12:54:22;7.30;;;2.43;;
483;SDS011;228;48.922;12.198;2023-02-01T12:57:11;6.13;;;2.47;;
483;SDS011;228;48.922;12.198;2023-02-01T12:59:44;4.87;;;2.10;;
483;SDS011;228;48.922;12.198;2023-02-01T13:02:32;3.20;;;2.40;;
483;SDS011;228;48.922;12.198;2023-02-01T13:05:46;5.17;;;2.33;;
483;SDS011;228;48.922;12.198;2023-02-01T13:08:45;3.77;;;1.93;;
483;SDS011;228;48.922;12.198;2023-02-01T13:11:19;2.80;;;2.40;;
483;SDS011;228;48.922;12.198;2023-02-01T13:17:16;7.33;;;2.57;;
483;SDS011;228;48.922;12.198;2023-02-01T13:19:54;5.37;;;2.70;;
483;SDS011;228;48.922;12.198;2023-02-01T13:22:39;6.27;;;2.90;;
483;SDS011;228;48.922;12.198;2023-02-01T13:25:13;8.90;;;2.37;;
483;SDS011;228;48.922;12.198;2023-02-01T13:27:54;5.57;;;2.80;;
483;SDS011;228;48.922;12.198;2023-02-01T13:30:30;6.33;;;2.80;;
483;SDS011;228;48.922;12.198;2023-02-01T13:36:47;4.03;;;2.83;;
483;SDS011;228;48.922;12.198;2023-02-01T13:45:22;7.17;;;2.93;;
483;SDS011;228;48.922;12.198;2023-02-01T13:47:56;2.70;;;2.40;;
483;SDS011;228;48.922;12.198;2023-02-01T13:53:03;10.10;;;3.63;;
483;SDS011;228;48.922;12.198;2023-02-01T13:55:46;4.03;;;2.70;;
483;SDS011;228;48.922;12.198;2023-02-01T13:58:29;5.47;;;2.80;;
483;SDS011;228;48.922;12.198;2023-02-01T14:04:05;3.60;;;2.50;;
483;SDS011;228;48.922;12.198;2023-02-01T14:19:30;5.47;;;3.23;;
483;SDS011;228;48.922;12.198;2023-02-01T14:21:59;8.70;;;2.80;;
483;SDS011;228;48.922;12.198;2023-02-01T14:24:55;4.50;;;2.13;;
483;SDS011;228;48.922;12.198;2023-02-01T14:27:24;5.77;;;2.33;;
483;SDS011;228;48.922;12.198;2023-02-01T14:29:57;7.50;;;3.23;;
483;SDS011;228;48.922;12.198;2023-02-01T14:32:30;8.43;;;2.47;;
483;SDS011;228;48.922;12.198;2023-02-01T14:35:00;9.17;;;3.03;;
483;SDS011;228;48.922;12.198;2023-02-01T14:37:31;6.07;;;2.40;;
483;SDS011;228;48.922;12.198;2023-02-01T14:40:03;4.20;;;2.60;;
483;SDS011;228;48.922;12.198;2023-02-01T14:55:37;4.50;;;2.30;;
483;SDS011;228;48.922;12.198;2023-02-01T14:58:15;4.17;;;2.30;;
483;SDS011;228;48.922;12.198;2023-02-01T15:00:54;4.53;;;2.63;;
483;SDS011;228;48.922;12.198;2023-02-01T15:06:21;4.97;;;2.57;;
483;SDS011;228;48.922;12.198;2023-02-01T15:08:48;8.20;;;3.33;;
483;SDS011;228;48.922;12.198;2023-02-01T15:11:15;6.07;;;2.87;;
483;SDS011;228;48.922;12.198;2023-02-01T15:13:47;3.73;;;2.50;;
483;SDS011;228;48.922;12.198;2023-02-01T15:16:20;5.53;;;2.40;;
483;SDS011;228;48.922;12.198;2023-02-01T15:18:49;5.67;;;2.20;;
483;SDS011;228;48.922;12.198;2023-02-01T15:21:17;12.30;;;2.70;;
483;SDS011;228;48.922;12.198;2023-02-01T15:23:48;7.90;;;2.53;;
483;SDS011;228;48.922;12.198;2023-02-01T15:26:29;4.40;;;2.10;;
483;SDS011;228;48.922;12.198;2023-02-01T15:28:59;5.63;;;2.50;;
483;SDS011;228;48.922;12.198;2023-02-01T15:31:33;4.97;;;3.07;;
483;SDS011;228;48.922;12.198;2023-02-01T15:34:10;7.63;;;2.37;;
483;SDS011;228;48.922;12.198;2023-02-01T15:36:36;6.90;;;3.03;;
483;SDS011;228;48.922;12.198;2023-02-01T15:47:27;4.77;;;2.50;;
483;SDS011;228;48.922;12.198;2023-02-01T15:49:59;8.60;;;2.03;;
483;SDS011;228;48.922;12.198;2023-02-01T15:55:23;3.60;;;2.07;;
483;SDS011;228;48.922;12.198;2023-02-01T15:58:06;5.17;;;2.70;;
483;SDS011;228;48.922;12.198;2023-02-01T16:00:44;7.20;;;2.27;;
483;SDS011;228;48.922;12.198;2023-02-01T16:03:27;4.40;;;2.33;;
483;SDS011;228;48.922;12.198;2023-02-01T16:06:10;3.20;;;2.10;;
483;SDS011;228;48.922;12.198;2023-02-01T16:08:56;7.67;;;2.70;;
483;SDS011;228;48.922;12.198;2023-02-01T16:11:45;5.90;;;2.83;;
483;SDS011;228;48.922;12.198;2023-02-01T16:14:20;6.63;;;2.40;;
483;SDS011;228;48.922;12.198;2023-02-01T16:16:47;4.33;;;2.57;;
483;SDS011;228;48.922;12.198;2023-02-01T16:19:14;6.17;;;2.07;;
483;SDS011;228;48.922;12.198;2023-02-01T16:21:40;5.03;;;1.90;;
483;SDS011;228;48.922;12.198;2023-02-01T16:24:06;8.03;;;2.67;;
483;SDS011;228;48.922;12.198;2023-02-01T16:26:32;8.43;;;3.00;;
483;SDS011;228;48.922;12.198;2023-02-01T16:28:59;3.03;;;2.03;;
483;SDS011;228;48.922;12.198;2023-02-01T16:31:29;4.33;;;2.20;;
483;SDS011;228;48.922;12.198;2023-02-01T16:33:58;5.60;;;2.13;;
483;SDS011;228;48.922;12.198;2023-02-01T16:36:24;4.17;;;1.80;;
483;SDS011;228;48.922;12.198;2023-02-01T16:38:50;7.27;;;1.80;;
483;SDS011;228;48.922;12.198;2023-02-01T16:41:18;7.67;;;1.67;;
483;SDS011;228;48.922;12.198;2023-02-01T16:43:51;3.37;;;1.70;;
483;SDS011;228;48.922;12.198;2023-02-01T16:46:20;5.00;;;1.87;;
483;SDS011;228;48.922;12.198;2023-02-01T16:48:57;5.37;;;1.87;;
483;SDS011;228;48.922;12.198;2023-02-01T16:51:25;4.20;;;1.90;;
483;SDS011;228;48.922;12.198;2023-02-01T16:53:58;4.97;;;2.00;;
483;SDS011;228;48.922;12.198;2023-02-01T16:56:28;9.07;;;3.00;;
483;SDS011;228;48.922;12.198;2023-02-01T16:58:57;6.37;;;2.00;;
483;SDS011;228;48.922;12.198;2023-02-01T17:01:23;3.30;;;1.87;;
483;SDS011;228;48.922;12.198;2023-02-01T17:03:50;6.47;;;1.97;;
483;SDS011;228;48.922;12.198;2023-02-01T17:06:17;4.23;;;1.93;;
483;SDS011;228;48.922;12.198;2023-02-01T17:08:52;3.70;;;1.80;;
483;SDS011;228;48.922;12.198;2023-02-01T17:11:23;5.43;;;2.00;;
483;SDS011;228;48.922;12.198;2023-02-01T17:13:49;7.30;;;1.73;;
483;SDS011;228;48.922;12.198;2023-02-01T17:19:03;4.23;;;1.60;;
483;SDS011;228;48.922;12.198;2023-02-01T17:24:30;2.53;;;1.10;;
483;SDS011;228;48.922;12.198;2023-02-01T17:26:57;5.43;;;1.63;;
483;SDS011;228;48.922;12.198;2023-02-01T17:29:23;3.73;;;1.97;;
483;SDS011;228;48.922;12.198;2023-02-01T17:31:52;2.93;;;2.13;;
483;SDS011;228;48.922;12.198;2023-02-01T17:34:20;4.07;;;2.10;;
483;SDS011;228;48.922;12.198;2023-02-01T17:36:47;3.53;;;2.00;;
483;SDS011;228;48.922;12.198;2023-02-01T17:39:14;2.57;;;1.77;;
483;SDS011;228;48.922;12.198;2023-02-01T17:42:00;2.87;;;2.50;;
483;SDS011;228;48.922;12.198;2023-02-01T17:44:27;3.07;;;2.13;;
483;SDS011;228;48.922;12.198;2023-02-01T17:46:53;3.50;;;1.63;;
483;SDS011;228;48.922;12.198;2023-02-01T17:49:21;5.97;;;1.93;;
483;SDS011;228;48.922;12.198;2023-02-01T17:51:48;7.63;;;2.10;;
483;SDS011;228;48.922;12.198;2023-02-01T17:54:17;3.90;;;2.00;;
483;SDS011;228;48.922;12.198;2023-02-01T17:56:44;2.70;;;1.93;;
483;SDS011;228;48.922;12.198;2023-02-01T17:59:13;6.00;;;2.30;;
483;SDS011;228;48.922;12.198;2023-02-01T18:01:40;4.37;;;2.03;;
483;SDS011;228;48.922;12.198;2023-02-01T18:04:12;3.00;;;2.30;;
483;SDS011;228;48.922;12.198;2023-02-01T18:06:43;4.57;;;1.37;;
483;SDS011;228;48.922;12.198;2023-02-01T18:09:10;3.40;;;2.13;;
483;SDS011;228;48.922;12.198;2023-02-01T18:11:36;2.40;;;1.57;;
483;SDS011;228;48.922;12.198;2023-02-01T18:14:02;4.83;;;2.17;;
483;SDS011;228;48.922;12.198;2023-02-01T18:16:29;4.10;;;1.80;;
483;SDS011;228;48.922;12.198;2023-02-01T18:18:57;12.27;;;2.40;;
483;SDS011;228;48.922;12.198;2023-02-01T18:21:28;6.47;;;2.10;;
483;SDS011;228;48.922;12.198;2023-02-01T18:24:09;7.20;;;2.37;;
483;SDS011;228;48.922;12.198;2023-02-01T18:26:38;8.20;;;2.07;;
483;SDS011;228;48.922;12.198;2023-02-01T18:29:04;4.20;;;2.30;;
483;SDS011;228;48.922;12.198;2023-02-01T18:31:31;3.13;;;1.90;;
483;SDS011;228;48.922;12.198;2023-02-01T18:33:58;7.80;;;2.00;;
483;SDS011;228;48.922;12.198;2023-02-01T18:36:25;3.17;;;1.93;;
483;SDS011;228;48.922;12.198;2023-02-01T18:38:53;9.43;;;2.73;;
483;SDS011;228;48.922;12.198;2023-02-01T18:41:22;5.73;;;2.07;;